Time;durP1;ratioP1;P1;durP2;ratioP2;P2;SDS_P1;SDS_P2;PMS_P1;PMS_P2;Temp;Humidity;BMP_temperature;BMP_pressure;BME280_temperature;BME280_humidity;BME280_pressure;Samples;Min_cycle;Max_cycle;Signal;HPM_P1;HPM_P2
2019/12/15 00:01:56;;;;;;;14.8;6;;;;;;;;;;;;;
2019/12/15 00:04:03;;;;;;;10.9;5.7;;;;;;;;;;;;;
2019/12/15 00:06:31;;;;;;;14.5;6.2;;;;;;;;;;;;;
2019/12/15 00:09:15;;;;;;;10.5;5.8;;;;;;;;;;;;;
2019/12/15 00:11:37;;;;;;;11.8;5.8;;;;;;;;;;;;;
2019/12/15 00:13:51;;;;;;;8.4;4.8;;;;;;;;;;;;;
2019/12/15 00:16:16;;;;;;;12.1;5.2;;;;;;;;;;;;;
2019/12/15 00:18:45;;;;;;;8.5;4.9;;;;;;;;;;;;;
2019/12/15 00:21:08;;;;;;;7.9;4.8;;;;;;;;;;;;;
2019/12/15 00:23:40;;;;;;;10.2;4.7;;;;;;;;;;;;;
2019/12/15 00:26:03;;;;;;;7.8;4.5;;;;;;;;;;;;;
2019/12/15 00:28:26;;;;;;;8.5;4.1;;;;;;;;;;;;;
2019/12/15 00:30:51;;;;;;;7.8;4;;;;;;;;;;;;;
2019/12/15 00:33:17;;;;;;;9.4;4.4;;;;;;;;;;;;;
2019/12/15 00:35:44;;;;;;;9.5;5;;;;;;;;;;;;;
2019/12/15 00:38:11;;;;;;;9.7;5.4;;;;;;;;;;;;;
2019/12/15 00:40:40;;;;;;;10.2;5.8;;;;;;;;;;;;;
2019/12/15 00:43:06;;;;;;;9.7;5.4;;;;;;;;;;;;;
2019/12/15 00:45:27;;;;;;;10.3;6;;;;;;;;;;;;;
2019/12/15 00:47:52;;;;;;;10.9;6;;;;;;;;;;;;;
2019/12/15 00:50:19;;;;;;;7.7;4.4;;;;;;;;;;;;;
2019/12/15 00:52:44;;;;;;;6.6;4.2;;;;;;;;;;;;;
2019/12/15 00:55:21;;;;;;;7.8;3.9;;;;;;;;;;;;;
2019/12/15 00:57:48;;;;;;;6.4;4;;;;;;;;;;;;;
2019/12/15 01:00:15;;;;;;;8.8;3.9;;;;;;;;;;;;;
2019/12/15 01:02:38;;;;;;;6.1;3.7;;;;;;;;;;;;;
2019/12/15 01:05:11;;;;;;;6.3;3.4;;;;;;;;;;;;;
2019/12/15 01:07:39;;;;;;;6;3;;;;;;;;;;;;;
2019/12/15 01:09:57;;;;;;;6.3;3.2;;;;;;;;;;;;;
2019/12/15 01:12:28;;;;;;;5.2;3.1;;;;;;;;;;;;;
2019/12/15 01:14:52;;;;;;;6.6;3.4;;;;;;;;;;;;;
2019/12/15 01:17:24;;;;;;;5.1;3.4;;;;;;;;;;;;;
2019/12/15 01:19:52;;;;;;;7.1;3.6;;;;;;;;;;;;;
2019/12/15 01:22:18;;;;;;;6;3.4;;;;;;;;;;;;;
2019/12/15 01:24:42;;;;;;;5;3.2;;;;;;;;;;;;;
2019/12/15 01:27:07;;;;;;;5;2.6;;;;;;;;;;;;;
2019/12/15 01:29:36;;;;;;;5.5;2.9;;;;;;;;;;;;;
2019/12/15 01:31:59;;;;;;;7.4;3.5;;;;;;;;;;;;;
2019/12/15 01:34:23;;;;;;;5.8;3.7;;;;;;;;;;;;;
2019/12/15 01:36:48;;;;;;;7;3.8;;;;;;;;;;;;;
2019/12/15 01:39:18;;;;;;;6.8;3.4;;;;;;;;;;;;;
2019/12/15 01:41:42;;;;;;;6.2;3.2;;;;;;;;;;;;;
2019/12/15 01:44:10;;;;;;;5.7;3;;;;;;;;;;;;;
2019/12/15 01:46:39;;;;;;;6.4;3.8;;;;;;;;;;;;;
2019/12/15 01:49:08;;;;;;;5.4;3.4;;;;;;;;;;;;;
2019/12/15 01:51:32;;;;;;;5.7;3.2;;;;;;;;;;;;;
2019/12/15 01:53:58;;;;;;;4.1;2.4;;;;;;;;;;;;;
2019/12/15 01:56:29;;;;;;;3.3;2.2;;;;;;;;;;;;;
2019/12/15 01:58:51;;;;;;;3.4;2.2;;;;;;;;;;;;;
2019/12/15 02:01:29;;;;;;;4.7;2.3;;;;;;;;;;;;;
2019/12/15 02:03:50;;;;;;;5;1.7;;;;;;;;;;;;;
2019/12/15 02:06:39;;;;;;;3;2.1;;;;;;;;;;;;;
2019/12/15 02:08:34;;;;;;;3.4;1.5;;;;;;;;;;;;;
2019/12/15 02:11:03;;;;;;;2.6;1.3;;;;;;;;;;;;;
2019/12/15 02:13:30;;;;;;;2.2;1.4;;;;;;;;;;;;;
2019/12/15 02:15:51;;;;;;;2.6;1.3;;;;;;;;;;;;;
2019/12/15 02:18:21;;;;;;;3.1;1.7;;;;;;;;;;;;;
2019/12/15 02:20:43;;;;;;;3.9;1.8;;;;;;;;;;;;;
2019/12/15 02:23:08;;;;;;;3.3;2.2;;;;;;;;;;;;;
2019/12/15 02:28:06;;;;;;;4.9;2.6;;;;;;;;;;;;;
2019/12/15 02:30:36;;;;;;;6.7;3.1;;;;;;;;;;;;;
2019/12/15 02:33:01;;;;;;;5.6;3;;;;;;;;;;;;;
2019/12/15 02:35:31;;;;;;;5.1;2.9;;;;;;;;;;;;;
2019/12/15 02:37:52;;;;;;;4.1;2.5;;;;;;;;;;;;;
2019/12/15 02:40:20;;;;;;;5.4;2.7;;;;;;;;;;;;;
2019/12/15 02:42:43;;;;;;;4;2.2;;;;;;;;;;;;;
2019/12/15 02:45:13;;;;;;;3.6;2;;;;;;;;;;;;;
2019/12/15 02:47:38;;;;;;;3.6;2;;;;;;;;;;;;;
2019/12/15 02:50:08;;;;;;;2.6;1.4;;;;;;;;;;;;;
2019/12/15 02:52:34;;;;;;;3;1.6;;;;;;;;;;;;;
2019/12/15 02:55:03;;;;;;;3.6;1.9;;;;;;;;;;;;;
2019/12/15 02:57:29;;;;;;;2.5;1.7;;;;;;;;;;;;;
2019/12/15 02:59:56;;;;;;;2.3;1.5;;;;;;;;;;;;;
2019/12/15 03:02:22;;;;;;;4.2;1.9;;;;;;;;;;;;;
2019/12/15 03:04:46;;;;;;;3;1.8;;;;;;;;;;;;;
2019/12/15 03:07:17;;;;;;;4.4;2.3;;;;;;;;;;;;;
2019/12/15 03:09:38;;;;;;;4.4;2.2;;;;;;;;;;;;;
2019/12/15 03:12:02;;;;;;;3.8;2.1;;;;;;;;;;;;;
2019/12/15 03:14:27;;;;;;;4;2.2;;;;;;;;;;;;;
2019/12/15 03:16:52;;;;;;;4.9;2.4;;;;;;;;;;;;;
2019/12/15 03:19:18;;;;;;;5.2;2.7;;;;;;;;;;;;;
2019/12/15 03:21:42;;;;;;;5.6;2.7;;;;;;;;;;;;;
2019/12/15 03:24:06;;;;;;;5.9;2.8;;;;;;;;;;;;;
2019/12/15 03:26:32;;;;;;;5.1;2.6;;;;;;;;;;;;;
2019/12/15 03:29:02;;;;;;;4.9;2.5;;;;;;;;;;;;;
2019/12/15 03:31:23;;;;;;;4.9;2.8;;;;;;;;;;;;;
2019/12/15 03:33:51;;;;;;;4.9;2.9;;;;;;;;;;;;;
2019/12/15 03:36:20;;;;;;;6.6;3.1;;;;;;;;;;;;;
2019/12/15 03:38:43;;;;;;;4.5;2.8;;;;;;;;;;;;;
2019/12/15 03:41:23;;;;;;;6;2.8;;;;;;;;;;;;;
2019/12/15 03:43:40;;;;;;;5.6;2.8;;;;;;;;;;;;;
2019/12/15 03:46:05;;;;;;;4.6;2.2;;;;;;;;;;;;;
2019/12/15 03:48:34;;;;;;;3.3;2.1;;;;;;;;;;;;;
2019/12/15 03:51:52;;;;;;;3.6;2.2;;;;;;;;;;;;;
2019/12/15 03:53:32;;;;;;;6.5;3;;;;;;;;;;;;;
2019/12/15 03:55:56;;;;;;;5.9;2.5;;;;;;;;;;;;;
2019/12/15 03:58:26;;;;;;;5.1;2.4;;;;;;;;;;;;;
2019/12/15 04:02:45;;;;;;;4;2.4;;;;;;;1.97;86.46582;927.8035;;;;
2019/12/15 04:05:10;;;;;;;5.1;2.8;;;;;;;2.01;85.84668;927.8314;;;;
2019/12/15 04:07:40;;;;;;;5;3;;;;;;;2.06;85.60938;927.7964;;;;
2019/12/15 04:10:17;;;;;;;4.9;3;;;;;;;2.05;85.46387;927.9375;;;;
2019/12/15 04:12:46;;;;;;;5.2;3;;;;;;;2.19;84.85254;927.9582;;;;
2019/12/15 04:15:18;;;;;;;5.4;2.9;;;;;;;2.44;83.03027;927.9542;;;;
2019/12/15 04:17:38;;;;;;;4.7;2.8;;;;;;;2.51;82.97754;927.9464;;;;
2019/12/15 04:20:07;;;;;;;4.5;2.8;;;;;;;2.53;82.71387;927.9916;;;;
2019/12/15 04:22:34;;;;;;;3.7;2.7;;;;;;;2.47;82.47559;927.9533;;;;
2019/12/15 04:25:08;;;;;;;4.6;3;;;;;;;2.36;82.96094;927.9922;;;;
2019/12/15 04:27:32;;;;;;;4.6;2.5;;;;;;;2.33;83.21289;927.9711;;;;
2019/12/15 04:30:04;;;;;;;5.1;2.7;;;;;;;2.22;83.36914;928.0062;;;;
2019/12/15 04:32:27;;;;;;;4.4;2.7;;;;;;;2.13;83.79883;927.9874;;;;
2019/12/15 04:34:57;;;;;;;7.1;3.2;;;;;;;2.18;83.57422;928.0089;;;;
2019/12/15 04:37:31;;;;;;;4.3;2.9;;;;;;;2.25;82.92773;927.9559;;;;
2019/12/15 04:40:14;;;;;;;3.6;2.5;;;;;;;2.35;82.62109;928.0092;;;;
2019/12/15 04:42:37;;;;;;;5.3;2.6;;;;;;;2.29;82.3418;928.0605;;;;
2019/12/15 04:45:08;;;;;;;4.2;2.4;;;;;;;2.09;83.25586;928.0603;;;;
2019/12/15 04:47:34;;;;;;;5;3.2;;;;;;;1.82;84.86816;928.0352;;;;
2019/12/15 04:50:20;;;;;;;5.9;3.2;;;;;;;1.78;85.08301;928.1131;;;;
2019/12/15 04:52:47;;;;;;;5.1;3;;;;;;;1.69;85.20117;928.1296;;;;
2019/12/15 04:55:23;;;;;;;6.5;3.2;;;;;;;1.54;85.9082;928.2118;;;;
2019/12/15 04:57:55;;;;;;;5.6;3.1;;;;;;;1.52;86.31738;928.1989;;;;
2019/12/15 05:01:10;;;;;;;5.2;2.9;;;;;;;1.65;85.59473;928.1805;;;;
2019/12/15 05:03:34;;;;;;;5.8;3;;;;;;;1.67;85.16211;928.0381;;;;
2019/12/15 05:06:02;;;;;;;4.9;2.9;;;;;;;1.68;85.07422;928.1136;;;;
2019/12/15 05:08:28;;;;;;;6.8;3.3;;;;;;;1.69;85.13379;928.1469;;;;
2019/12/15 05:11:15;;;;;;;6.3;3.4;;;;;;;1.71;84.71094;928.054;;;;
2019/12/15 05:13:18;;;;;;;7.3;3.5;;;;;;;;;;;;;
2019/12/15 05:15:43;;;;;;;7.4;4.2;;;;;;;;;;;;;
2019/12/15 05:18:08;;;;;;;9.1;5;;;;;;;;;;;;;
2019/12/15 05:20:33;;;;;;;9;4.7;;;;;;;;;;;;;
2019/12/15 05:23:03;;;;;;;10;5.1;;;;;;;;;;;;;
2019/12/15 05:25:26;;;;;;;10.3;5.9;;;;;;;;;;;;;
2019/12/15 05:27:50;;;;;;;10.6;5.2;;;;;;;;;;;;;
2019/12/15 05:30:17;;;;;;;7.8;4.3;;;;;;;;;;;;;
2019/12/15 05:32:41;;;;;;;8.6;4.5;;;;;;;;;;;;;
2019/12/15 05:35:12;;;;;;;9.3;4.9;;;;;;;;;;;;;
2019/12/15 05:37:36;;;;;;;8.5;4.6;;;;;;;;;;;;;
2019/12/15 05:40:02;;;;;;;8.1;4.1;;;;;;;;;;;;;
2019/12/15 05:42:28;;;;;;;6.6;3.8;;;;;;;;;;;;;
2019/12/15 05:44:58;;;;;;;6.3;3.4;;;;;;;;;;;;;
2019/12/15 05:47:19;;;;;;;6.7;3.8;;;;;;;;;;;;;
2019/12/15 05:49:44;;;;;;;8;3.4;;;;;;;;;;;;;
2019/12/15 05:52:48;;;;;;;5.7;3.1;;;;;;;;;;;;;
2019/12/15 05:54:41;;;;;;;6;3.4;;;;;;;;;;;;;
2019/12/15 05:57:07;;;;;;;6.4;3.3;;;;;;;;;;;;;
2019/12/15 06:00:16;;;;;;;5.6;3.5;;;;;;;;;;;;;
2019/12/15 06:02:28;;;;;;;5.3;2.7;;;;;;;;;;;;;
2019/12/15 06:04:56;;;;;;;5.1;2.9;;;;;;;;;;;;;
2019/12/15 06:07:21;;;;;;;4.8;3;;;;;;;;;;;;;
2019/12/15 06:10:14;;;;;;;5.3;3.3;;;;;;;;;;;;;
2019/12/15 06:12:34;;;;;;;4.8;2.9;;;;;;;;;;;;;
2019/12/15 06:15:00;;;;;;;5.6;3.1;;;;;;;;;;;;;
2019/12/15 06:17:26;;;;;;;4.7;2.7;;;;;;;;;;;;;
2019/12/15 06:19:49;;;;;;;4.1;2.4;;;;;;;;;;;;;
2019/12/15 06:22:37;;;;;;;5.3;2.4;;;;;;;;;;;;;
2019/12/15 06:24:44;;;;;;;4.9;2.8;;;;;;;;;;;;;
2019/12/15 06:27:13;;;;;;;5.3;3.1;;;;;;;;;;;;;
2019/12/15 06:29:37;;;;;;;5;3.6;;;;;;;;;;;;;
2019/12/15 06:31:59;;;;;;;8.5;4.2;;;;;;;;;;;;;
2019/12/15 06:34:24;;;;;;;9.9;5.7;;;;;;;;;;;;;
2019/12/15 06:36:52;;;;;;;13.9;8.4;;;;;;;;;;;;;
2019/12/15 06:39:21;;;;;;;16.1;9.9;;;;;;;;;;;;;
2019/12/15 06:41:44;;;;;;;15.8;10.2;;;;;;;;;;;;;
2019/12/15 06:44:07;;;;;;;15.8;9.1;;;;;;;;;;;;;
2019/12/15 06:46:34;;;;;;;16.3;9.2;;;;;;;;;;;;;
2019/12/15 06:48:57;;;;;;;13.4;7.6;;;;;;;;;;;;;
2019/12/15 06:53:14;;;;;;;11.9;7;;;;;;;;;;;;;
2019/12/15 06:53:48;;;;;;;11.2;6.5;;;;;;;;;;;;;
2019/12/15 06:56:19;;;;;;;10.1;6.3;;;;;;;;;;;;;
2019/12/15 06:58:43;;;;;;;11.6;6.8;;;;;;;;;;;;;
2019/12/15 07:01:13;;;;;;;15;8.6;;;;;;;;;;;;;
2019/12/15 07:03:36;;;;;;;24.6;10.8;;;;;;;;;;;;;
2019/12/15 07:06:01;;;;;;;18.4;10.7;;;;;;;;;;;;;
2019/12/15 07:08:34;;;;;;;30.5;16.8;;;;;;;;;;;;;
2019/12/15 07:11:12;;;;;;;23.5;12.8;;;;;;;;;;;;;
2019/12/15 07:13:22;;;;;;;17;10.4;;;;;;;;;;;;;
2019/12/15 07:15:48;;;;;;;20.8;12.4;;;;;;;;;;;;;
2019/12/15 07:18:19;;;;;;;15.9;9.6;;;;;;;;;;;;;
2019/12/15 07:21:10;;;;;;;21.6;13.1;;;;;;;;;;;;;
2019/12/15 07:24:10;;;;;;;23.3;13.1;;;;;;;;;;;;;
2019/12/15 07:26:32;;;;;;;17.2;10.2;;;;;;;;;;;;;
2019/12/15 07:28:55;;;;;;;16;9.6;;;;;;;;;;;;;
2019/12/15 07:31:20;;;;;;;19.4;12.4;;;;;;;;;;;;;
2019/12/15 07:33:45;;;;;;;23.2;12;;;;;;;;;;;;;
2019/12/15 07:36:14;;;;;;;15.9;9.4;;;;;;;;;;;;;
2019/12/15 07:38:38;;;;;;;20.7;11.4;;;;;;;;;;;;;
2019/12/15 07:41:07;;;;;;;18.5;10.7;;;;;;;;;;;;;
2019/12/15 07:43:35;;;;;;;16.8;10.2;;;;;;;;;;;;;
2019/12/15 07:45:55;;;;;;;14.4;8.3;;;;;;;;;;;;;
2019/12/15 07:48:19;;;;;;;13.4;7.9;;;;;;;;;;;;;
2019/12/15 07:50:48;;;;;;;12.6;7.3;;;;;;;;;;;;;
2019/12/15 07:53:13;;;;;;;11.6;6.9;;;;;;;;;;;;;
2019/12/15 07:55:38;;;;;;;11.1;6.7;;;;;;;;;;;;;
2019/12/15 07:58:06;;;;;;;8.5;5.4;;;;;;;;;;;;;
2019/12/15 08:00:34;;;;;;;23;13.4;;;;;;;;;;;;;
2019/12/15 08:02:58;;;;;;;14.1;8.6;;;;;;;;;;;;;
2019/12/15 08:05:26;;;;;;;19.2;12.4;;;;;;;;;;;;;
2019/12/15 08:07:49;;;;;;;28.3;15.5;;;;;;;;;;;;;
2019/12/15 08:10:16;;;;;;;41.7;19.4;;;;;;;;;;;;;
2019/12/15 08:13:13;;;;;;;51.7;25.9;;;;;;;;;;;;;
2019/12/15 08:15:31;;;;;;;31.7;18.5;;;;;;;;;;;;;
2019/12/15 08:17:55;;;;;;;29.3;17.3;;;;;;;;;;;;;
2019/12/15 08:20:22;;;;;;;17.8;12.2;;;;;;;;;;;;;
2019/12/15 08:22:50;;;;;;;10.9;7.8;;;;;;;;;;;;;
2019/12/15 08:25:17;;;;;;;10.7;6.9;;;;;;;;;;;;;
2019/12/15 08:27:41;;;;;;;10.6;6.5;;;;;;;;;;;;;
2019/12/15 08:30:09;;;;;;;11.7;7.8;;;;;;;;;;;;;
2019/12/15 08:32:30;;;;;;;13.1;8.1;;;;;;;;;;;;;
2019/12/15 08:34:55;;;;;;;12.2;8.5;;;;;;;;;;;;;
2019/12/15 08:37:23;;;;;;;17.4;12.1;;;;;;;;;;;;;
2019/12/15 08:39:47;;;;;;;18.7;12.8;;;;;;;;;;;;;
2019/12/15 08:42:12;;;;;;;9.4;6.2;;;;;;;;;;;;;
2019/12/15 08:44:35;;;;;;;9.1;5.5;;;;;;;;;;;;;
2019/12/15 08:47:05;;;;;;;7.6;5.3;;;;;;;;;;;;;
2019/12/15 08:49:31;;;;;;;9.8;5.6;;;;;;;;;;;;;
2019/12/15 08:51:59;;;;;;;7.2;4.5;;;;;;;;;;;;;
2019/12/15 08:54:18;;;;;;;6.2;4.6;;;;;;;;;;;;;
2019/12/15 08:56:41;;;;;;;7.9;4.7;;;;;;;;;;;;;
2019/12/15 08:59:12;;;;;;;10;6.8;;;;;;;;;;;;;
2019/12/15 09:01:37;;;;;;;9.8;6.8;;;;;;;;;;;;;
2019/12/15 09:04:05;;;;;;;13;9;;;;;;;;;;;;;
2019/12/15 09:07:10;;;;;;;21.1;13.8;;;;;;;;;;;;;
2019/12/15 09:09:00;;;;;;;22.8;11.6;;;;;;;;;;;;;
2019/12/15 09:11:20;;;;;;;31.8;18.8;;;;;;;;;;;;;
2019/12/15 09:13:45;;;;;;;24;16.2;;;;;;;;;;;;;
2019/12/15 09:16:12;;;;;;;26.9;17.7;;;;;;;;;;;;;
2019/12/15 09:18:37;;;;;;;24.8;16.5;;;;;;;;;;;;;
2019/12/15 09:21:02;;;;;;;20.2;12.5;;;;;;;;;;;;;
2019/12/15 09:23:28;;;;;;;21.8;14.6;;;;;;;;;;;;;
2019/12/15 09:25:53;;;;;;;15.3;9.8;;;;;;;;;;;;;
2019/12/15 09:28:23;;;;;;;12.5;7.9;;;;;;;;;;;;;
2019/12/15 09:30:46;;;;;;;13.7;9.3;;;;;;;;;;;;;
2019/12/15 09:33:18;;;;;;;13.4;8.7;;;;;;;;;;;;;
2019/12/15 09:35:34;;;;;;;12.2;7.7;;;;;;;;;;;;;
2019/12/15 09:38:15;;;;;;;12.1;8.3;;;;;;;;;;;;;
2019/12/15 09:40:28;;;;;;;11.1;7.4;;;;;;;;;;;;;
2019/12/15 09:42:54;;;;;;;13.9;8.1;;;;;;;;;;;;;
2019/12/15 09:45:24;;;;;;;10.6;6.4;;;;;;;;;;;;;
2019/12/15 09:47:44;;;;;;;8.2;5.4;;;;;;;;;;;;;
2019/12/15 09:50:10;;;;;;;10.6;6.9;;;;;;;;;;;;;
2019/12/15 09:52:34;;;;;;;8.7;6.3;;;;;;;;;;;;;
2019/12/15 09:55:00;;;;;;;4.6;3.3;;;;;;;;;;;;;
2019/12/15 09:57:24;;;;;;;5.7;3.7;;;;;;;;;;;;;
2019/12/15 09:59:59;;;;;;;5.8;4.1;;;;;;;;;;;;;
2019/12/15 10:02:16;;;;;;;5.5;3;;;;;;;;;;;;;
2019/12/15 10:07:05;;;;;;;9;4;;;;;;;;;;;;;
2019/12/15 10:09:33;;;;;;;11.4;6.3;;;;;;;;;;;;;
2019/12/15 10:11:55;;;;;;;8.8;5;;;;;;;;;;;;;
2019/12/15 10:14:20;;;;;;;3.7;2.3;;;;;;;;;;;;;
2019/12/15 10:16:50;;;;;;;8;3.6;;;;;;;;;;;;;
2019/12/15 10:19:35;;;;;;;7;3.2;;;;;;;;;;;;;
2019/12/15 10:21:39;;;;;;;6.4;3.2;;;;;;;;;;;;;
2019/12/15 10:24:01;;;;;;;8.4;5.7;;;;;;;;;;;;;
2019/12/15 10:26:33;;;;;;;7.5;4.9;;;;;;;;;;;;;
2019/12/15 10:28:53;;;;;;;12.6;6.9;;;;;;;;;;;;;
2019/12/15 10:31:19;;;;;;;11;6.6;;;;;;;;;;;;;
2019/12/15 10:33:43;;;;;;;12.2;6;;;;;;;;;;;;;
2019/12/15 10:36:10;;;;;;;12.1;6.5;;;;;;;;;;;;;
2019/12/15 10:38:35;;;;;;;19.7;9.3;;;;;;;;;;;;;
2019/12/15 10:40:59;;;;;;;21.2;10;;;;;;;;;;;;;
2019/12/15 10:43:33;;;;;;;21.4;8.4;;;;;;;;;;;;;
2019/12/15 10:45:58;;;;;;;16.2;9.5;;;;;;;;;;;;;
2019/12/15 10:48:38;;;;;;;19.1;10.2;;;;;;;;;;;;;
2019/12/15 10:50:52;;;;;;;20.4;9.7;;;;;;;;;;;;;
2019/12/15 10:53:16;;;;;;;17.1;8.4;;;;;;;;;;;;;
2019/12/15 10:55:40;;;;;;;11.3;7.2;;;;;;;;;;;;;
2019/12/15 10:58:07;;;;;;;9.1;5.1;;;;;;;;;;;;;
2019/12/15 11:00:33;;;;;;;6.2;3.9;;;;;;;;;;;;;
2019/12/15 11:02:57;;;;;;;11.2;3.8;;;;;;;;;;;;;
2019/12/15 11:05:27;;;;;;;5.3;2.8;;;;;;;;;;;;;
2019/12/15 11:07:49;;;;;;;11.3;3.4;;;;;;;;;;;;;
2019/12/15 11:10:14;;;;;;;9.5;3.1;;;;;;;;;;;;;
2019/12/15 11:12:38;;;;;;;7.5;3.4;;;;;;;;;;;;;
2019/12/15 11:15:03;;;;;;;12.1;4.2;;;;;;;;;;;;;
2019/12/15 11:17:29;;;;;;;13.5;4.7;;;;;;;;;;;;;
2019/12/15 11:19:54;;;;;;;16.2;7;;;;;;;;;;;;;
2019/12/15 11:22:22;;;;;;;13.8;6.7;;;;;;;;;;;;;
2019/12/15 11:24:44;;;;;;;10.2;4.8;;;;;;;;;;;;;
2019/12/15 11:27:13;;;;;;;11.6;5.1;;;;;;;;;;;;;
2019/12/15 11:29:36;;;;;;;8.7;3.9;;;;;;;;;;;;;
2019/12/15 11:32:01;;;;;;;12.3;4.5;;;;;;;;;;;;;
2019/12/15 11:34:30;;;;;;;10.4;4.9;;;;;;;;;;;;;
2019/12/15 11:36:54;;;;;;;12.8;4.6;;;;;;;;;;;;;
2019/12/15 11:39:17;;;;;;;5;2.8;;;;;;;;;;;;;
2019/12/15 11:41:48;;;;;;;10;3.5;;;;;;;;;;;;;
2019/12/15 11:44:13;;;;;;;7.5;3.7;;;;;;;;;;;;;
2019/12/15 11:46:35;;;;;;;10;3.3;;;;;;;;;;;;;
2019/12/15 11:49:01;;;;;;;5.2;3;;;;;;;;;;;;;
2019/12/15 11:51:25;;;;;;;8.9;3.7;;;;;;;;;;;;;
2019/12/15 11:54:12;;;;;;;18;3.8;;;;;;;;;;;;;
2019/12/15 11:56:35;;;;;;;11.9;3.5;;;;;;;;;;;;;
2019/12/15 11:58:59;;;;;;;7.6;3.9;;;;;;;;;;;;;
2019/12/15 12:01:23;;;;;;;8;3.5;;;;;;;;;;;;;
2019/12/15 12:03:52;;;;;;;4.8;2.7;;;;;;;;;;;;;
2019/12/15 12:08:53;;;;;;;3.2;2.3;;;;;;;;;;;;;
2019/12/15 12:11:21;;;;;;;4.5;2.2;;;;;;;;;;;;;
2019/12/15 12:13:36;;;;;;;2.7;1.7;;;;;;;;;;;;;
2019/12/15 12:16:03;;;;;;;3;1.9;;;;;;;;;;;;;
2019/12/15 12:18:30;;;;;;;3.3;2.1;;;;;;;;;;;;;
2019/12/15 12:20:55;;;;;;;7.9;2.5;;;;;;;;;;;;;
2019/12/15 12:23:20;;;;;;;18.3;2.7;;;;;;;;;;;;;
2019/12/15 12:26:13;;;;;;;15.2;2.6;;;;;;;;;;;;;
2019/12/15 12:28:40;;;;;;;8.2;2.2;;;;;;;;;;;;;
2019/12/15 12:31:06;;;;;;;4.8;2.1;;;;;;;;;;;;;
2019/12/15 12:33:30;;;;;;;12.5;6;;;;;;;;;;;;;
2019/12/15 12:36:03;;;;;;;12.8;6.9;;;;;;;;;;;;;
2019/12/15 12:38:26;;;;;;;13.3;7.6;;;;;;;;;;;;;
2019/12/15 12:40:54;;;;;;;15.8;7.2;;;;;;;;;;;;;
2019/12/15 12:43:21;;;;;;;10.4;6.1;;;;;;;;;;;;;
2019/12/15 12:45:43;;;;;;;12.2;5;;;;;;;;;;;;;
2019/12/15 12:48:10;;;;;;;10.6;4.8;;;;;;;;;;;;;
2019/12/15 12:50:32;;;;;;;10.2;4.3;;;;;;;;;;;;;
2019/12/15 12:52:59;;;;;;;21.7;5.1;;;;;;;;;;;;;
2019/12/15 12:55:23;;;;;;;7.4;4.4;;;;;;;;;;;;;
2019/12/15 12:57:51;;;;;;;25.9;6.7;;;;;;;;;;;;;
2019/12/15 13:00:17;;;;;;;9.5;4.4;;;;;;;;;;;;;
2019/12/15 13:02:40;;;;;;;9.2;4.2;;;;;;;;;;;;;
2019/12/15 13:05:05;;;;;;;11.2;6.5;;;;;;;;;;;;;
2019/12/15 13:07:36;;;;;;;26.6;12.1;;;;;;;;;;;;;
2019/12/15 13:10:03;;;;;;;22.9;9.6;;;;;;;;;;;;;
2019/12/15 13:12:22;;;;;;;23.4;9.5;;;;;;;;;;;;;
2019/12/15 13:14:48;;;;;;;21.2;9.5;;;;;;;;;;;;;
2019/12/15 13:19:05;;;;;;;20.5;7.7;;;;;;;;;;;;;
2019/12/15 13:19:45;;;;;;;17.1;7.9;;;;;;;;;;;;;
2019/12/15 13:22:25;;;;;;;21;8.7;;;;;;;;;;;;;
2019/12/15 13:24:31;;;;;;;26.5;9.8;;;;;;;;;;;;;
2019/12/15 13:26:59;;;;;;;24.5;10.8;;;;;;;;;;;;;
2019/12/15 13:29:21;;;;;;;31.8;11.5;;;;;;;;;;;;;
2019/12/15 13:31:48;;;;;;;17.4;8.1;;;;;;;;;;;;;
2019/12/15 13:34:18;;;;;;;20.6;10.2;;;;;;;;;;;;;
2019/12/15 13:36:39;;;;;;;18.3;10.5;;;;;;;;;;;;;
2019/12/15 13:39:04;;;;;;;17.8;9.8;;;;;;;;;;;;;
2019/12/15 13:41:29;;;;;;;14.7;8.2;;;;;;;;;;;;;
2019/12/15 13:44:01;;;;;;;15.8;9.4;;;;;;;;;;;;;
2019/12/15 13:46:20;;;;;;;16.7;8.1;;;;;;;;;;;;;
2019/12/15 13:48:44;;;;;;;13.6;8;;;;;;;;;;;;;
2019/12/15 13:51:10;;;;;;;10.4;6.3;;;;;;;;;;;;;
2019/12/15 13:54:19;;;;;;;10.3;6.5;;;;;;;;;;;;;
2019/12/15 13:56:46;;;;;;;19.5;6.6;;;;;;;;;;;;;
2019/12/15 13:59:14;;;;;;;15.5;6.3;;;;;;;;;;;;;
2019/12/15 14:01:37;;;;;;;18.4;6.3;;;;;;;;;;;;;
2019/12/15 14:04:01;;;;;;;15;6.4;;;;;;;;;;;;;
2019/12/15 14:06:26;;;;;;;17;7.3;;;;;;;;;;;;;
2019/12/15 14:08:55;;;;;;;11.4;6.5;;;;;;;;;;;;;
2019/12/15 14:11:18;;;;;;;12.3;6.9;;;;;;;;;;;;;
2019/12/15 14:13:42;;;;;;;15.6;7.2;;;;;;;;;;;;;
2019/12/15 14:16:08;;;;;;;13.2;7.7;;;;;;;;;;;;;
2019/12/15 14:18:35;;;;;;;15.3;8;;;;;;;;;;;;;
2019/12/15 14:21:00;;;;;;;15.3;9.6;;;;;;;;;;;;;
2019/12/15 14:23:25;;;;;;;47.7;27.5;;;;;;;;;;;;;
2019/12/15 14:25:52;;;;;;;26.1;9;;;;;;;;;;;;;
2019/12/15 14:28:16;;;;;;;15.7;9.2;;;;;;;;;;;;;
2019/12/15 14:30:40;;;;;;;16.8;9.3;;;;;;;;;;;;;
2019/12/15 14:33:05;;;;;;;20.9;12.9;;;;;;;;;;;;;
2019/12/15 14:35:36;;;;;;;21.9;13.7;;;;;;;;;;;;;
2019/12/15 14:38:02;;;;;;;25.8;14.8;;;;;;;;;;;;;
2019/12/15 14:40:32;;;;;;;28.8;16.1;;;;;;;;;;;;;
2019/12/15 14:42:52;;;;;;;40.6;22.7;;;;;;;;;;;;;
2019/12/15 14:45:20;;;;;;;31;18.2;;;;;;;;;;;;;
2019/12/15 14:47:50;;;;;;;33.3;18.8;;;;;;;;;;;;;
2019/12/15 14:50:15;;;;;;;44.9;25.9;;;;;;;;;;;;;
2019/12/15 14:52:44;;;;;;;42.8;23.3;;;;;;;;;;;;;
2019/12/15 14:55:12;;;;;;;41.8;24;;;;;;;;;;;;;
2019/12/15 14:57:39;;;;;;;40.7;24.4;;;;;;;;;;;;;
2019/12/15 15:00:03;;;;;;;33.8;22.4;;;;;;;;;;;;;
2019/12/15 15:02:27;;;;;;;35;23.2;;;;;;;;;;;;;
2019/12/15 15:04:56;;;;;;;42.4;28;;;;;;;;;;;;;
2019/12/15 15:07:19;;;;;;;41.3;27.1;;;;;;;;;;;;;
2019/12/15 15:09:52;;;;;;;30.7;22.7;;;;;;;;;;;;;
2019/12/15 15:12:09;;;;;;;38.3;26.7;;;;;;;;;;;;;
2019/12/15 15:14:34;;;;;;;49;33.7;;;;;;;;;;;;;
2019/12/15 15:17:16;;;;;;;52.7;35.1;;;;;;;;;;;;;
2019/12/15 15:19:27;;;;;;;57.2;38.2;;;;;;;;;;;;;
2019/12/15 15:21:56;;;;;;;55;38.2;;;;;;;;;;;;;
2019/12/15 15:24:17;;;;;;;50.3;34.5;;;;;;;;;;;;;
2019/12/15 15:26:41;;;;;;;44.9;32.4;;;;;;;;;;;;;
2019/12/15 15:29:06;;;;;;;49.6;31.6;;;;;;;;;;;;;
2019/12/15 15:31:34;;;;;;;54;35.4;;;;;;;;;;;;;
2019/12/15 15:33:57;;;;;;;57.3;36.6;;;;;;;;;;;;;
2019/12/15 15:36:22;;;;;;;54.9;35.6;;;;;;;;;;;;;
2019/12/15 15:38:48;;;;;;;52.1;35.6;;;;;;;;;;;;;
2019/12/15 15:41:16;;;;;;;46.9;31.3;;;;;;;;;;;;;
2019/12/15 15:43:40;;;;;;;44.2;29.1;;;;;;;;;;;;;
2019/12/15 15:46:10;;;;;;;57.4;38.9;;;;;;;;;;;;;
2019/12/15 15:48:33;;;;;;;67.2;45.4;;;;;;;;;;;;;
2019/12/15 15:50:55;;;;;;;49.7;33.8;;;;;;;;;;;;;
2019/12/15 15:53:25;;;;;;;42.1;28.2;;;;;;;;;;;;;
2019/12/15 15:55:48;;;;;;;40.2;26;;;;;;;;;;;;;
2019/12/15 15:58:14;;;;;;;42.3;28.7;;;;;;;;;;;;;
2019/12/15 16:00:39;;;;;;;57.2;33.7;;;;;;;;;;;;;
2019/12/15 16:03:06;;;;;;;59.3;34.6;;;;;;;;;;;;;
2019/12/15 16:05:29;;;;;;;52;33.4;;;;;;;;;;;;;
2019/12/15 16:07:54;;;;;;;60.1;35.4;;;;;;;;;;;;;
2019/12/15 16:10:20;;;;;;;62.8;36.9;;;;;;;;;;;;;
2019/12/15 16:12:48;;;;;;;48.5;30.4;;;;;;;;;;;;;
2019/12/15 16:15:09;;;;;;;51.5;32.1;;;;;;;;;;;;;
2019/12/15 16:17:36;;;;;;;57.4;36.2;;;;;;;;;;;;;
2019/12/15 16:20:01;;;;;;;74;45.1;;;;;;;;;;;;;
2019/12/15 16:22:32;;;;;;;60.4;41.5;;;;;;;;;;;;;
2019/12/15 16:25:01;;;;;;;63.3;41.3;;;;;;;;;;;;;
2019/12/15 16:27:24;;;;;;;69.1;43.8;;;;;;;;;;;;;
2019/12/15 16:29:51;;;;;;;68.2;43.8;;;;;;;;;;;;;
2019/12/15 16:32:17;;;;;;;63.7;39.5;;;;;;;;;;;;;
2019/12/15 16:35:13;;;;;;;80.2;55.1;;;;;;;;;;;;;
2019/12/15 16:37:30;;;;;;;50.7;34.7;;;;;;;;;;;;;
2019/12/15 16:40:01;;;;;;;54.8;34.7;;;;;;;;;;;;;
2019/12/15 16:42:21;;;;;;;44.9;28.4;;;;;;;;;;;;;
2019/12/15 16:44:46;;;;;;;39.8;25.4;;;;;;;;;;;;;
2019/12/15 16:47:11;;;;;;;90.3;54.4;;;;;;;;;;;;;
2019/12/15 16:49:36;;;;;;;63.7;38.6;;;;;;;;;;;;;
2019/12/15 16:52:03;;;;;;;59.2;38.2;;;;;;;;;;;;;
2019/12/15 16:54:30;;;;;;;64.8;42.3;;;;;;;;;;;;;
2019/12/15 16:56:58;;;;;;;60.2;38.1;;;;;;;;;;;;;
2019/12/15 16:59:21;;;;;;;68.1;44;;;;;;;;;;;;;
2019/12/15 17:01:48;;;;;;;44.3;29.5;;;;;;;;;;;;;
2019/12/15 17:04:15;;;;;;;47.5;27.2;;;;;;;;;;;;;
2019/12/15 17:06:40;;;;;;;42.7;25.4;;;;;;;;;;;;;
2019/12/15 17:09:06;;;;;;;43.8;27.1;;;;;;;;;;;;;
2019/12/15 17:11:31;;;;;;;56.6;32.4;;;;;;;;;;;;;
2019/12/15 17:13:58;;;;;;;62.8;35.1;;;;;;;;;;;;;
2019/12/15 17:16:22;;;;;;;49.1;30;;;;;;;;;;;;;
2019/12/15 17:18:46;;;;;;;40.4;26;;;;;;;;;;;;;
2019/12/15 17:21:12;;;;;;;38;24.5;;;;;;;;;;;;;
2019/12/15 17:23:41;;;;;;;36.4;25;;;;;;;;;;;;;
2019/12/15 17:26:02;;;;;;;35.2;22.8;;;;;;;;;;;;;
2019/12/15 17:28:29;;;;;;;37.8;23.3;;;;;;;;;;;;;
2019/12/15 17:30:58;;;;;;;43.2;28.4;;;;;;;;;;;;;
2019/12/15 17:33:22;;;;;;;41.5;26.7;;;;;;;;;;;;;
2019/12/15 17:35:47;;;;;;;42.8;26.9;;;;;;;;;;;;;
2019/12/15 17:38:16;;;;;;;33;22.8;;;;;;;;;;;;;
2019/12/15 17:41:00;;;;;;;45.4;29.1;;;;;;;;;;;;;
2019/12/15 17:43:35;;;;;;;40;25.1;;;;;;;;;;;;;
2019/12/15 17:45:57;;;;;;;174.8;114;;;;;;;;;;;;;
2019/12/15 17:48:27;;;;;;;47.6;32.9;;;;;;;;;;;;;
2019/12/15 17:50:49;;;;;;;53.6;36.8;;;;;;;;;;;;;
2019/12/15 17:53:13;;;;;;;129.7;95.8;;;;;;;;;;;;;
2019/12/15 17:55:40;;;;;;;59.5;38.5;;;;;;;;;;;;;
2019/12/15 17:58:08;;;;;;;50.5;34.6;;;;;;;;;;;;;
2019/12/15 18:00:34;;;;;;;70.2;48.4;;;;;;;;;;;;;
2019/12/15 18:03:00;;;;;;;49.5;32.9;;;;;;;;;;;;;
2019/12/15 18:05:26;;;;;;;37.1;25.7;;;;;;;;;;;;;
2019/12/15 18:07:48;;;;;;;64.4;38.6;;;;;;;;;;;;;
2019/12/15 18:10:16;;;;;;;72.9;42.8;;;;;;;;;;;;;
2019/12/15 18:15:16;;;;;;;65.8;39.7;;;;;;;;;;;;;
2019/12/15 18:17:34;;;;;;;68.1;38;;;;;;;;;;;;;
2019/12/15 18:19:54;;;;;;;62.6;32.1;;;;;;;;;;;;;
2019/12/15 18:22:45;;;;;;;56.2;34.1;;;;;;;;;;;;;
2019/12/15 18:24:51;;;;;;;52.3;34.6;;;;;;;;;;;;;
2019/12/15 18:27:19;;;;;;;44.8;29.8;;;;;;;;;;;;;
2019/12/15 18:29:42;;;;;;;47.8;33;;;;;;;;;;;;;
2019/12/15 18:32:09;;;;;;;40.8;27.7;;;;;;;;;;;;;
2019/12/15 18:34:34;;;;;;;39.6;26;;;;;;;;;;;;;
2019/12/15 18:37:00;;;;;;;28.5;19.1;;;;;;;;;;;;;
2019/12/15 18:39:28;;;;;;;35.5;22.7;;;;;;;;;;;;;
2019/12/15 18:41:50;;;;;;;39.6;25.4;;;;;;;;;;;;;
2019/12/15 18:44:20;;;;;;;44.9;29.5;;;;;;;;;;;;;
2019/12/15 18:46:42;;;;;;;53;35.9;;;;;;;;;;;;;
2019/12/15 18:49:26;;;;;;;37.7;23.5;;;;;;;;;;;;;
2019/12/15 18:51:33;;;;;;;35.1;23.7;;;;;;;;;;;;;
2019/12/15 18:53:59;;;;;;;40.5;26.3;;;;;;;;;;;;;
2019/12/15 18:56:27;;;;;;;36.8;24.1;;;;;;;;;;;;;
2019/12/15 18:58:50;;;;;;;34.7;23.3;;;;;;;;;;;;;
2019/12/15 19:01:19;;;;;;;43;26.9;;;;;;;;;;;;;
2019/12/15 19:03:46;;;;;;;46.6;27.7;;;;;;;;;;;;;
2019/12/15 19:06:09;;;;;;;45;29.2;;;;;;;;;;;;;
2019/12/15 19:08:30;;;;;;;33.7;22.9;;;;;;;;;;;;;
2019/12/15 19:11:03;;;;;;;26.8;18.6;;;;;;;;;;;;;
2019/12/15 19:13:29;;;;;;;27.5;18.5;;;;;;;;;;;;;
2019/12/15 19:16:00;;;;;;;32.8;20.1;;;;;;;;;;;;;
2019/12/15 19:18:25;;;;;;;43.4;22.7;;;;;;;;;;;;;
2019/12/15 19:21:25;;;;;;;41.2;21.2;;;;;;;;;;;;;
2019/12/15 19:23:50;;;;;;;37.2;20.9;;;;;;;;;;;;;
2019/12/15 19:26:12;;;;;;;40.2;26.1;;;;;;;;;;;;;
2019/12/15 19:28:42;;;;;;;39.3;23.4;;;;;;;;;;;;;
2019/12/15 19:31:08;;;;;;;34.5;21.8;;;;;;;;;;;;;
2019/12/15 19:33:42;;;;;;;71.2;35.2;;;;;;;;;;;;;
2019/12/15 19:36:23;;;;;;;47.6;32.3;;;;;;;;;;;;;
2019/12/15 19:38:36;;;;;;;36.2;22.7;;;;;;;;;;;;;
2019/12/15 19:41:03;;;;;;;38;26.1;;;;;;;;;;;;;
2019/12/15 19:43:29;;;;;;;77.3;56.1;;;;;;;;;;;;;
2019/12/15 19:45:53;;;;;;;35.2;23.8;;;;;;;;;;;;;
2019/12/15 19:48:24;;;;;;;34.1;22.3;;;;;;;;;;;;;
2019/12/15 19:50:46;;;;;;;34.5;22.9;;;;;;;;;;;;;
2019/12/15 19:53:11;;;;;;;27.9;19.1;;;;;;;;;;;;;
2019/12/15 19:55:40;;;;;;;33.9;22.1;;;;;;;;;;;;;
2019/12/15 19:58:08;;;;;;;32.4;21.1;;;;;;;;;;;;;
2019/12/15 20:00:36;;;;;;;34.5;22;;;;;;;;;;;;;
2019/12/15 20:03:01;;;;;;;32.1;20.1;;;;;;;;;;;;;
2019/12/15 20:08:09;;;;;;;67.7;42.7;;;;;;;;;;;;;